createdAt,value
2018-01-24T00:02:24.213Z,6.87
2018-01-24T00:04:51.047Z,6.50
2018-01-24T00:07:17.912Z,6.40
2018-01-24T00:09:44.741Z,7.00
2018-01-24T00:12:11.590Z,6.60
2018-01-24T00:14:38.526Z,6.50
2018-01-24T00:17:05.386Z,5.70
2018-01-24T00:19:32.326Z,7.53
2018-01-24T00:21:59.265Z,6.90
2018-01-24T00:24:26.105Z,6.87
2018-01-24T00:26:52.940Z,6.70
2018-01-24T00:29:19.890Z,6.50
2018-01-24T00:31:46.746Z,6.67
2018-01-24T00:34:13.585Z,6.73
2018-01-24T00:36:40.540Z,6.87
2018-01-24T00:39:07.484Z,7.30
2018-01-24T00:41:34.331Z,6.80
2018-01-24T00:44:01.188Z,7.23
2018-01-24T00:46:28.124Z,7.50
2018-01-24T00:48:55.062Z,7.13
2018-01-24T00:51:21.902Z,7.87
2018-01-24T00:53:48.860Z,6.83
2018-01-24T00:56:15.694Z,7.53
2018-01-24T00:58:42.536Z,6.70
2018-01-24T01:09:28.805Z,7.17
2018-01-24T01:11:55.648Z,6.90
2018-01-24T01:14:22.500Z,7.00
2018-01-24T01:16:49.436Z,8.17
2018-01-24T01:19:16.385Z,6.07
2018-01-24T01:21:43.296Z,7.27
2018-01-24T01:24:10.544Z,6.83
2018-01-24T01:26:37.844Z,7.30
2018-01-24T01:29:04.788Z,6.37
2018-01-24T01:31:31.736Z,6.90
2018-01-24T01:33:58.679Z,6.90
2018-01-24T01:36:25.720Z,6.50
2018-01-24T01:38:52.980Z,5.90
2018-01-24T01:41:19.933Z,5.80
2018-01-24T01:43:46.775Z,6.87
2018-01-24T01:46:13.717Z,6.33
2018-01-24T01:48:40.583Z,6.50
2018-01-24T01:51:07.445Z,6.40
2018-01-24T01:53:34.281Z,5.10
2018-01-24T01:56:01.198Z,5.70
2018-01-24T01:58:28.144Z,5.60
2018-01-24T02:00:55.000Z,6.87
2018-01-24T02:03:21.936Z,5.40
2018-01-24T02:05:48.798Z,5.17
2018-01-24T02:08:15.720Z,6.70
2018-01-24T02:10:42.771Z,6.43
2018-01-24T02:13:09.611Z,5.43
2018-01-24T02:15:36.450Z,5.47
2018-01-24T02:18:03.320Z,5.43
2018-01-24T02:20:30.256Z,5.40
2018-01-24T02:22:57.085Z,5.43
2018-01-24T02:25:24.045Z,5.53
2018-01-24T02:27:50.882Z,5.77
2018-01-24T02:30:17.717Z,5.57
2018-01-24T02:32:44.609Z,5.13
2018-01-24T02:35:11.620Z,5.20
2018-01-24T02:37:38.451Z,5.47
2018-01-24T02:40:05.320Z,4.77
2018-01-24T02:42:32.252Z,5.10
2018-01-24T02:44:59.093Z,5.43
2018-01-24T02:47:26.045Z,4.50
2018-01-24T02:49:52.987Z,4.90
2018-01-24T02:52:19.832Z,4.70
2018-01-24T02:54:46.788Z,5.67
2018-01-24T02:57:13.649Z,6.20
2018-01-24T02:59:40.986Z,4.67
2018-01-24T03:02:07.829Z,4.63
2018-01-24T03:04:34.772Z,5.50
2018-01-24T03:07:01.923Z,4.57
2018-01-24T03:09:28.868Z,4.73
2018-01-24T03:11:55.814Z,4.53
2018-01-24T03:14:22.668Z,4.80
2018-01-24T03:16:49.608Z,3.77
2018-01-24T03:19:16.550Z,3.90
2018-01-24T03:21:43.487Z,4.10
2018-01-24T03:24:10.352Z,4.03
2018-01-24T03:26:37.219Z,4.00
2018-01-24T03:29:04.148Z,4.20
2018-01-24T03:31:31.007Z,3.00
2018-01-24T03:33:57.928Z,3.60
2018-01-24T03:36:24.781Z,3.90
2018-01-24T03:38:51.641Z,3.80
2018-01-24T03:41:18.564Z,4.27
2018-01-24T03:43:45.508Z,4.20
2018-01-24T03:46:12.452Z,3.67
2018-01-24T03:48:39.396Z,3.97
2018-01-24T03:51:06.249Z,4.17
2018-01-24T03:53:33.192Z,4.63
2018-01-24T03:56:00.136Z,3.90
2018-01-24T03:58:26.981Z,4.40
2018-01-24T04:00:53.919Z,3.80
2018-01-24T04:03:20.879Z,4.03
2018-01-24T04:05:47.716Z,3.93
2018-01-24T04:08:14.671Z,3.70
2018-01-24T04:10:41.517Z,4.10
2018-01-24T04:13:08.372Z,3.40
2018-01-24T04:15:35.237Z,3.80
2018-01-24T04:18:02.160Z,3.33
2018-01-24T04:20:29.012Z,3.10
2018-01-24T04:22:55.937Z,2.57
2018-01-24T04:25:22.781Z,3.40
2018-01-24T04:27:49.753Z,3.37
2018-01-24T04:30:16.596Z,3.40
2018-01-24T04:32:43.515Z,3.57
2018-01-24T04:35:10.368Z,3.70
2018-01-24T04:37:37.204Z,3.73
2018-01-24T04:40:04.076Z,3.20
2018-01-24T04:42:30.990Z,3.07
2018-01-24T04:44:57.960Z,3.70
2018-01-24T04:47:24.782Z,3.57
2018-01-24T04:49:51.736Z,3.90
2018-01-24T04:52:18.675Z,3.80
2018-01-24T04:54:45.630Z,3.40
2018-01-24T04:57:12.484Z,3.30
2018-01-24T04:59:39.320Z,2.87
2018-01-24T05:02:06.192Z,3.80
2018-01-24T05:04:33.036Z,3.70
2018-01-24T05:06:59.880Z,4.10
2018-01-24T05:09:26.788Z,3.10
2018-01-24T05:11:53.629Z,2.80
2018-01-24T05:14:20.572Z,3.77
2018-01-24T05:16:47.425Z,3.30
2018-01-24T05:19:14.272Z,3.40
2018-01-24T05:21:41.120Z,3.43
2018-01-24T05:24:07.976Z,3.30
2018-01-24T05:26:34.900Z,3.47
2018-01-24T05:29:01.856Z,3.30
2018-01-24T05:31:28.790Z,3.73
2018-01-24T05:33:55.632Z,3.77
2018-01-24T05:36:22.512Z,4.47
2018-01-24T05:38:49.428Z,3.97
2018-01-24T05:41:16.372Z,3.50
2018-01-24T05:43:43.327Z,3.10
2018-01-24T05:46:10.271Z,4.30
2018-01-24T05:48:37.124Z,4.90
2018-01-24T05:51:04.155Z,4.40
2018-01-24T05:53:30.984Z,4.33
2018-01-24T05:55:57.828Z,5.40
2018-01-24T05:58:24.685Z,5.43
2018-01-24T06:00:51.531Z,4.80
2018-01-24T06:03:18.487Z,4.60
2018-01-24T06:05:45.436Z,4.23
2018-01-24T06:08:12.388Z,4.10
2018-01-24T06:10:39.235Z,3.53
2018-01-24T06:13:06.168Z,3.20
2018-01-24T06:15:33.004Z,3.17
2018-01-24T06:17:59.964Z,3.60
2018-01-24T06:20:26.800Z,3.67
2018-01-24T06:22:53.662Z,3.80
2018-01-24T06:25:20.597Z,3.67
2018-01-24T06:27:47.536Z,3.70
2018-01-24T06:30:14.391Z,4.10
2018-01-24T06:32:41.232Z,4.37
2018-01-24T06:35:08.072Z,4.43
2018-01-24T06:37:35.008Z,4.10
2018-01-24T06:40:01.853Z,4.97
2018-01-24T06:42:28.803Z,3.93
2018-01-24T06:44:55.752Z,3.60
2018-01-24T06:47:22.584Z,4.20
2018-01-24T06:49:49.479Z,3.23
2018-01-24T06:52:16.296Z,4.20
2018-01-24T06:54:43.233Z,4.07
2018-01-24T06:57:10.176Z,4.23
2018-01-24T06:59:37.016Z,4.30
2018-01-24T07:02:03.868Z,4.77
2018-01-24T07:04:30.807Z,3.80
2018-01-24T07:06:57.656Z,4.40
2018-01-24T07:09:24.489Z,4.60
2018-01-24T07:11:51.340Z,4.60
2018-01-24T07:14:30.150Z,5.30
2018-01-24T07:16:57.001Z,4.47
2018-01-24T07:19:23.862Z,5.30
2018-01-24T07:21:50.720Z,4.20
2018-01-24T07:24:17.556Z,4.83
2018-01-24T07:26:44.417Z,5.10
2018-01-24T07:29:11.344Z,4.80
2018-01-24T07:31:38.192Z,5.00
2018-01-24T07:34:05.032Z,4.83
2018-01-24T07:36:31.983Z,5.20
2018-01-24T07:38:58.925Z,5.37
2018-01-24T07:41:25.768Z,5.27
2018-01-24T07:43:52.624Z,5.20
2018-01-24T07:46:19.547Z,5.77
2018-01-24T07:48:46.408Z,5.20
2018-01-24T07:51:13.269Z,6.77
2018-01-24T07:53:40.191Z,7.80
2018-01-24T07:56:07.131Z,5.80
2018-01-24T07:58:33.972Z,5.30
2018-01-24T08:01:00.815Z,5.40
2018-01-24T08:03:27.667Z,5.00
2018-01-24T08:05:54.537Z,4.93
2018-01-24T08:08:21.379Z,5.53
2018-01-24T08:10:48.258Z,4.77
2018-01-24T08:13:15.560Z,5.30
2018-01-24T08:15:42.399Z,5.50
2018-01-24T08:18:09.344Z,5.80
2018-01-24T08:20:36.188Z,5.20
2018-01-24T08:23:03.028Z,5.20
2018-01-24T08:25:29.976Z,5.90
2018-01-24T08:27:56.934Z,6.20
2018-01-24T08:30:23.882Z,6.33
2018-01-24T08:32:50.732Z,5.97
2018-01-24T08:35:17.576Z,5.53
2018-01-24T08:37:44.512Z,5.17
2018-01-24T08:40:11.382Z,6.30
2018-01-24T08:42:38.224Z,7.37
2018-01-24T08:45:05.146Z,8.30
2018-01-24T08:47:31.990Z,7.50
2018-01-24T08:49:58.938Z,7.73
2018-01-24T08:52:25.877Z,8.77
2018-01-24T08:54:52.730Z,6.27
2018-01-24T08:57:19.665Z,6.10
2018-01-24T08:59:58.533Z,4.97
2018-01-24T09:02:37.439Z,4.67
2018-01-24T09:05:16.216Z,4.40
2018-01-24T09:07:55.584Z,3.93
2018-01-24T09:10:34.534Z,3.73
2018-01-24T09:13:13.360Z,3.97
2018-01-24T09:15:52.104Z,4.30
2018-01-24T09:18:31.004Z,3.83
2018-01-24T09:21:09.884Z,4.30
2018-01-24T09:23:54.186Z,4.10
2018-01-24T09:26:21.025Z,4.10
2018-01-24T09:28:47.875Z,3.93
2018-01-24T09:31:14.712Z,3.27
2018-01-24T09:33:41.648Z,3.40
2018-01-24T09:36:08.482Z,3.27
2018-01-24T09:38:35.341Z,2.80
2018-01-24T09:41:02.187Z,3.63
2018-01-24T09:43:29.124Z,4.13
2018-01-24T09:45:55.966Z,5.37
2018-01-24T09:48:22.796Z,8.13
2018-01-24T09:50:49.773Z,7.30
2018-01-24T09:53:16.710Z,7.83
2018-01-24T09:55:43.655Z,5.90
2018-01-24T09:58:10.537Z,4.50
2018-01-24T10:00:37.409Z,5.47
2018-01-24T10:03:04.212Z,5.37
2018-01-24T10:05:31.080Z,4.57
2018-01-24T10:07:57.911Z,7.37
2018-01-24T10:10:24.772Z,6.10
2018-01-24T10:12:51.611Z,5.50
2018-01-24T10:15:19.011Z,4.00
2018-01-24T10:17:45.870Z,2.50
2018-01-24T10:20:12.720Z,1.70
2018-01-24T10:22:39.644Z,1.50
2018-01-24T10:25:06.532Z,1.40
2018-01-24T10:27:33.484Z,1.20
2018-01-24T10:30:00.390Z,1.10
2018-01-24T10:32:27.272Z,1.20
2018-01-24T10:34:54.173Z,1.50
2018-01-24T10:37:21.019Z,1.20
2018-01-24T10:39:47.968Z,1.80
2018-01-24T10:42:14.953Z,1.20
2018-01-24T10:44:41.861Z,1.30
2018-01-24T10:47:08.712Z,1.00
2018-01-24T10:49:35.761Z,1.37
2018-01-24T10:52:02.600Z,1.27
2018-01-24T10:54:29.448Z,1.00
2018-01-24T10:56:56.387Z,1.60
2018-01-24T10:59:23.232Z,1.10
2018-01-24T11:01:50.208Z,1.10
2018-01-24T11:04:17.124Z,1.40
2018-01-24T11:06:43.977Z,1.37
2018-01-24T11:09:10.911Z,1.40
2018-01-24T11:11:38.146Z,1.40
2018-01-24T11:14:05.020Z,1.83
2018-01-24T11:16:31.856Z,1.33
2018-01-24T11:18:58.708Z,1.27
2018-01-24T11:21:25.584Z,1.70
2018-01-24T11:23:52.498Z,1.07
2018-01-24T11:26:19.435Z,1.43
2018-01-24T11:28:47.204Z,1.20
2018-01-24T11:31:14.042Z,1.30
2018-01-24T11:33:40.896Z,1.13
2018-01-24T11:36:07.848Z,0.97
2018-01-24T11:38:34.699Z,1.10
2018-01-24T11:41:01.540Z,1.30
2018-01-24T11:43:28.467Z,1.20
2018-01-24T11:45:55.724Z,1.30
2018-01-24T11:48:22.572Z,1.60
2018-01-24T11:50:49.428Z,1.40
2018-01-24T11:53:16.264Z,2.03
2018-01-24T11:55:43.132Z,1.80
2018-01-24T11:58:09.974Z,1.90
2018-01-24T12:00:36.823Z,1.70
2018-01-24T12:03:03.688Z,1.20
2018-01-24T12:05:30.552Z,1.10
2018-01-24T12:07:57.933Z,1.47
2018-01-24T12:10:24.747Z,1.37
2018-01-24T12:12:52.136Z,1.90
2018-01-24T12:15:19.058Z,1.80
2018-01-24T12:17:46.288Z,2.00
2018-01-24T12:20:13.178Z,1.53
2018-01-24T12:22:40.039Z,1.40
2018-01-24T12:25:06.892Z,1.83
2018-01-24T12:27:33.812Z,1.60
2018-01-24T12:30:00.761Z,1.60
2018-01-24T12:32:27.709Z,1.53
2018-01-24T12:34:54.656Z,1.83
2018-01-24T12:37:21.610Z,1.83
2018-01-24T12:39:48.460Z,1.77
2018-01-24T12:42:15.301Z,2.10
2018-01-24T12:44:42.234Z,1.70
2018-01-24T12:47:09.876Z,1.57
2018-01-24T12:49:37.251Z,1.87
2018-01-24T12:52:04.106Z,2.20
2018-01-24T12:54:31.048Z,1.80
2018-01-24T12:56:57.893Z,2.37
2018-01-24T12:59:24.737Z,2.67
2018-01-24T13:01:51.676Z,2.60
2018-01-24T13:04:18.531Z,2.77
2018-01-24T13:06:45.476Z,2.90
2018-01-24T13:09:12.421Z,2.60
2018-01-24T13:11:39.424Z,2.57
2018-01-24T13:14:06.221Z,3.23
2018-01-24T13:16:33.084Z,2.70
2018-01-24T13:18:59.920Z,2.57
2018-01-24T13:21:26.846Z,2.90
2018-01-24T13:23:53.693Z,2.97
2018-01-24T13:26:20.640Z,3.20
2018-01-24T13:28:47.480Z,3.30
2018-01-24T13:31:14.417Z,5.30
2018-01-24T13:33:41.273Z,5.73
2018-01-24T13:36:08.113Z,6.17
2018-01-24T13:38:34.968Z,5.87
2018-01-24T13:41:01.907Z,4.70
2018-01-24T13:43:28.849Z,4.07
2018-01-24T13:45:55.793Z,3.60
2018-01-24T13:48:22.637Z,3.90
2018-01-24T13:50:49.473Z,4.33
2018-01-24T13:53:16.416Z,3.80
2018-01-24T13:55:43.380Z,3.50
2018-01-24T13:58:10.317Z,3.40
2018-01-24T14:00:37.562Z,3.03
2018-01-24T14:03:04.833Z,3.17
2018-01-24T14:05:31.771Z,3.17
2018-01-24T14:07:58.718Z,3.10
2018-01-24T14:10:25.664Z,2.60
2018-01-24T14:12:52.868Z,2.90
2018-01-24T14:15:19.768Z,3.47
2018-01-24T14:17:46.811Z,3.20
2018-01-24T14:20:13.952Z,3.40
2018-01-24T14:22:40.784Z,2.90
2018-01-24T14:25:07.624Z,3.40
2018-01-24T14:27:34.516Z,2.60
2018-01-24T14:30:01.352Z,2.80
2018-01-24T14:32:28.355Z,2.90
2018-01-24T14:34:55.588Z,2.97
2018-01-24T14:37:22.420Z,3.00
2018-01-24T14:39:49.279Z,2.57
2018-01-24T14:42:16.177Z,2.70
2018-01-24T14:44:43.290Z,2.77
2018-01-24T14:47:10.682Z,3.10
2018-01-24T14:49:37.532Z,2.80
2018-01-24T14:52:04.392Z,3.20
2018-01-24T14:54:31.292Z,3.10
2018-01-24T14:56:58.140Z,3.23
2018-01-24T14:59:24.979Z,3.40
2018-01-24T15:01:52.262Z,3.00
2018-01-24T15:04:19.099Z,3.37
2018-01-24T15:06:45.948Z,2.73
2018-01-24T15:09:12.792Z,2.80
2018-01-24T15:11:39.796Z,3.23
2018-01-24T15:14:06.684Z,3.13
2018-01-24T15:16:33.525Z,3.23
2018-01-24T15:19:00.472Z,2.93
2018-01-24T15:21:27.328Z,2.80
2018-01-24T15:23:54.365Z,3.00
2018-01-24T15:26:21.580Z,3.47
2018-01-24T15:28:48.876Z,2.90
2018-01-24T15:31:15.828Z,2.83
2018-01-24T15:33:42.891Z,2.90
2018-01-24T15:36:09.823Z,2.50
2018-01-24T15:38:36.764Z,2.60
2018-01-24T15:41:03.612Z,3.10
2018-01-24T15:43:30.476Z,2.60
2018-01-24T15:45:57.811Z,2.87
2018-01-24T15:48:24.780Z,2.50
2018-01-24T15:50:51.704Z,2.60
2018-01-24T15:53:18.679Z,2.13
2018-01-24T15:55:45.595Z,2.33
2018-01-24T15:58:12.520Z,2.97
2018-01-24T16:00:39.488Z,2.20
2018-01-24T16:03:06.408Z,2.27
2018-01-24T16:05:33.282Z,2.40
2018-01-24T16:08:00.132Z,2.80
2018-01-24T16:10:27.088Z,2.40
2018-01-24T16:12:53.940Z,2.63
2018-01-24T16:15:20.872Z,2.80
2018-01-24T16:17:47.808Z,3.37
2018-01-24T16:20:14.659Z,2.40
2018-01-24T16:22:41.599Z,2.60
2018-01-24T16:25:08.537Z,2.73
2018-01-24T16:27:35.394Z,2.60
2018-01-24T16:30:02.243Z,3.27
2018-01-24T16:32:29.099Z,2.60
2018-01-24T16:34:55.945Z,2.80
2018-01-24T16:37:22.874Z,2.83
2018-01-24T16:39:49.718Z,3.10
2018-01-24T16:42:16.560Z,2.30
2018-01-24T16:44:43.458Z,2.20
2018-01-24T16:47:10.770Z,2.30
2018-01-24T16:49:37.608Z,2.40
2018-01-24T16:52:04.449Z,2.57
2018-01-24T16:54:31.384Z,2.60
2018-01-24T16:56:58.740Z,2.60
2018-01-24T16:59:25.993Z,2.20
2018-01-24T17:01:53.247Z,2.07
2018-01-24T17:04:20.199Z,2.60
2018-01-24T17:06:47.051Z,1.70
2018-01-24T17:09:13.928Z,1.63
2018-01-24T17:11:40.760Z,1.73
2018-01-24T17:14:07.620Z,1.87
2018-01-24T17:16:34.529Z,1.60
2018-01-24T17:19:01.375Z,1.50
2018-01-24T17:21:28.320Z,2.10
2018-01-24T17:23:55.181Z,1.80
2018-01-24T17:26:22.109Z,1.60
2018-01-24T17:28:49.049Z,1.73
2018-01-24T17:31:15.996Z,1.43
2018-01-24T17:33:42.893Z,1.90
2018-01-24T17:36:09.705Z,2.10
2018-01-24T17:38:36.726Z,2.40
2018-01-24T17:41:03.583Z,2.50
2018-01-24T17:43:30.444Z,2.20
2018-01-24T17:45:57.314Z,1.83
2018-01-24T17:48:24.201Z,2.70
2018-01-24T17:50:52.785Z,2.90
2018-01-24T17:53:19.616Z,3.67
2018-01-24T17:55:46.581Z,2.97
2018-01-24T17:58:13.937Z,2.70
2018-01-24T18:00:40.792Z,2.83
2018-01-24T18:03:07.737Z,3.40
2018-01-24T18:05:34.580Z,3.10
2018-01-24T18:08:01.525Z,3.17
2018-01-24T18:10:28.470Z,3.10
2018-01-24T18:12:55.312Z,2.87
2018-01-24T18:15:22.357Z,2.83
2018-01-24T18:17:49.615Z,3.03
2018-01-24T18:20:16.461Z,2.43
2018-01-24T18:22:43.323Z,2.37
2018-01-24T18:25:10.169Z,2.50
2018-01-24T18:27:37.098Z,3.10
2018-01-24T18:30:03.957Z,3.13
2018-01-24T18:32:30.900Z,2.60
2018-01-24T18:34:57.835Z,2.70
2018-01-24T18:37:24.776Z,3.20
2018-01-24T18:39:51.628Z,2.80
2018-01-24T18:42:18.568Z,2.73
2018-01-24T18:44:45.520Z,2.90
2018-01-24T18:47:12.464Z,3.10
2018-01-24T18:49:39.408Z,2.97
2018-01-24T18:52:06.451Z,2.93
2018-01-24T18:54:33.272Z,3.50
2018-01-24T18:57:00.524Z,2.70
2018-01-24T18:59:27.770Z,2.87
2018-01-24T19:01:55.025Z,3.33
2018-01-24T19:04:22.256Z,3.57
2018-01-24T19:06:49.117Z,3.30
2018-01-24T19:09:16.348Z,2.97
2018-01-24T19:11:43.265Z,3.03
2018-01-24T19:14:10.226Z,3.20
2018-01-24T19:16:37.144Z,3.43
2018-01-24T19:19:04.100Z,3.20
2018-01-24T19:21:31.050Z,3.40
2018-01-24T19:23:57.912Z,3.17
2018-01-24T19:26:24.756Z,3.50
2018-01-24T19:28:51.725Z,3.23
2018-01-24T19:31:18.624Z,3.40
2018-01-24T19:33:45.472Z,3.50
2018-01-24T19:36:12.317Z,3.20
2018-01-24T19:38:39.164Z,3.93
2018-01-24T19:41:06.105Z,3.80
2018-01-24T19:43:32.970Z,3.10
2018-01-24T19:45:59.812Z,2.77
2018-01-24T19:48:26.972Z,3.07
2018-01-24T19:50:53.899Z,3.80
2018-01-24T19:53:20.732Z,3.37
2018-01-24T19:55:47.616Z,3.10
2018-01-24T19:58:14.458Z,3.07
2018-01-24T20:00:41.367Z,3.30
2018-01-24T20:03:08.316Z,3.30
2018-01-24T20:05:35.159Z,3.23
2018-01-24T20:08:02.104Z,3.33
2018-01-24T20:10:28.948Z,3.80
2018-01-24T20:12:55.824Z,3.60
2018-01-24T20:15:22.655Z,3.33
2018-01-24T20:17:49.499Z,3.90
2018-01-24T20:20:16.438Z,3.93
2018-01-24T20:22:43.287Z,3.63
2018-01-24T20:25:10.245Z,4.30
2018-01-24T20:27:37.164Z,3.70
2018-01-24T20:30:04.114Z,3.60
2018-01-24T20:32:31.056Z,4.17
2018-01-24T20:34:58.004Z,3.47
2018-01-24T20:37:24.844Z,3.00
2018-01-24T20:39:51.684Z,3.70
2018-01-24T20:42:18.543Z,3.87
2018-01-24T20:44:45.397Z,3.70
2018-01-24T20:47:12.334Z,3.03
2018-01-24T20:49:39.185Z,2.87
2018-01-24T20:52:06.125Z,3.40
2018-01-24T20:54:33.064Z,2.57
2018-01-24T20:56:59.921Z,2.97
2018-01-24T20:59:26.760Z,3.03
2018-01-24T21:01:53.712Z,3.03
2018-01-24T21:04:20.652Z,3.20
2018-01-24T21:06:47.597Z,3.20
2018-01-24T21:09:14.552Z,3.07
2018-01-24T21:11:41.397Z,2.93
2018-01-24T21:14:08.236Z,2.63
2018-01-24T21:16:35.092Z,3.20
2018-01-24T21:19:02.023Z,2.87
2018-01-24T21:21:28.880Z,3.10
2018-01-24T21:23:55.893Z,3.20
2018-01-24T21:26:22.749Z,3.20
2018-01-24T21:29:00.457Z,3.90
2018-01-24T21:31:39.216Z,3.33
2018-01-24T21:34:17.907Z,3.30
2018-01-24T21:36:57.080Z,3.13
2018-01-24T21:39:24.389Z,3.70
2018-01-24T21:41:51.446Z,3.23
2018-01-24T21:44:18.287Z,2.80
2018-01-24T21:46:45.119Z,3.00
2018-01-24T21:49:11.999Z,3.23
2018-01-24T21:51:38.851Z,3.20
2018-01-24T21:54:05.692Z,3.43
2018-01-24T21:56:32.528Z,3.90
2018-01-24T21:58:59.379Z,3.50
2018-01-24T22:01:26.248Z,3.27
2018-01-24T22:03:53.480Z,3.17
2018-01-24T22:06:20.384Z,3.27
2018-01-24T22:08:47.252Z,3.13
2018-01-24T22:11:14.176Z,3.90
2018-01-24T22:13:41.034Z,3.63
2018-01-24T22:16:07.872Z,3.60
2018-01-24T22:18:34.812Z,3.40
2018-01-24T22:21:01.753Z,3.07
2018-01-24T22:23:28.700Z,2.97
2018-01-24T22:25:55.651Z,3.33
2018-01-24T22:28:22.500Z,2.73
2018-01-24T22:30:49.444Z,3.60
2018-01-24T22:33:16.282Z,3.23
2018-01-24T22:35:43.234Z,3.10
2018-01-24T22:38:10.076Z,2.90
2018-01-24T22:40:36.937Z,3.10
2018-01-24T22:43:03.772Z,3.67
2018-01-24T22:45:30.632Z,3.20
2018-01-24T22:47:57.477Z,3.13
2018-01-24T22:50:24.408Z,3.27
2018-01-24T22:52:51.345Z,3.63
2018-01-24T22:55:18.219Z,3.40
2018-01-24T22:57:45.052Z,2.83
2018-01-24T23:00:19.460Z,3.10
2018-01-24T23:02:46.409Z,3.30
2018-01-24T23:05:13.252Z,2.97
2018-01-24T23:07:40.192Z,3.20
2018-01-24T23:10:07.140Z,3.03
2018-01-24T23:12:33.977Z,2.50
2018-01-24T23:15:00.829Z,2.90
2018-01-24T23:17:27.671Z,3.30
2018-01-24T23:19:54.616Z,3.00
2018-01-24T23:22:21.468Z,3.87
2018-01-24T23:24:48.304Z,2.73
2018-01-24T23:27:15.252Z,2.93
2018-01-24T23:29:42.090Z,2.77
2018-01-24T23:32:09.044Z,2.80
2018-01-24T23:34:35.934Z,2.57
2018-01-24T23:37:02.812Z,3.03
2018-01-24T23:39:29.684Z,2.53
2018-01-24T23:41:56.543Z,2.70
2018-01-24T23:44:23.468Z,2.60
2018-01-24T23:46:50.412Z,2.43
2018-01-24T23:49:17.268Z,2.83
2018-01-24T23:51:44.208Z,2.10
2018-01-24T23:54:11.157Z,2.20
2018-01-24T23:56:38.096Z,2.20
2018-01-24T23:59:04.988Z,2.10
